Time;durP1;ratioP1;P1;durP2;ratioP2;P2;SDS_P1;SDS_P2;PMS_P1;PMS_P2;Temp;Humidity;BMP_temperature;BMP_pressure;BME280_temperature;BME280_humidity;BME280_pressure;Samples;Min_cycle;Max_cycle;Signal;HPM_P1;HPM_P2
2024/03/26 00:01:34;;;;;;;1999.90;999.90;;;;;;;4.01;100.00;99806.06;10527718;28;20543;-63
2024/03/26 00:06:35;;;;;;;1999.90;999.90;;;;;;;4.05;100.00;99807.63;10527532;28;20056;-63
2024/03/26 00:11:37;;;;;;;1999.90;999.90;;;;;;;3.81;100.00;99798.38;10527254;28;20052;-63
2024/03/26 00:16:38;;;;;;;1999.90;999.90;;;;;;;3.62;100.00;99794.03;10527375;28;20059;-63
2024/03/26 00:21:40;;;;;;;1999.90;999.90;;;;;;;3.70;100.00;99779.00;10527250;28;20109;-63
2024/03/26 00:26:41;;;;;;;1999.90;999.90;;;;;;;3.59;100.00;99770.84;10510477;28;20105;-63
2024/03/26 00:31:42;;;;;;;1999.90;999.90;;;;;;;3.44;100.00;99756.03;10526512;28;20052;-63
2024/03/26 00:36:44;;;;;;;1999.90;999.90;;;;;;;3.68;100.00;99748.88;10527100;28;20060;-63
2024/03/26 00:41:45;;;;;;;1999.90;999.90;;;;;;;3.61;100.00;99740.56;10526595;28;20044;-63
2024/03/26 00:46:46;;;;;;;1999.90;999.90;;;;;;;3.34;100.00;99737.47;10525460;28;20063;-63
2024/03/26 00:51:48;;;;;;;1999.90;999.90;;;;;;;3.24;100.00;99734.44;10508945;28;20043;-63
2024/03/26 00:56:49;;;;;;;1999.90;999.90;;;;;;;3.41;100.00;99723.34;10526132;28;20077;-63
2024/03/26 01:01:51;;;;;;;1999.90;999.90;;;;;;;3.52;100.00;99721.13;10525527;28;20052;-63
2024/03/26 01:06:52;;;;;;;1999.90;999.90;;;;;;;3.59;100.00;99710.50;10525760;28;20052;-63
2024/03/26 01:11:53;;;;;;;1999.90;999.90;;;;;;;3.43;100.00;99698.25;10524839;28;20059;-63
2024/03/26 01:16:55;;;;;;;1999.90;999.90;;;;;;;3.49;100.00;99691.97;10508981;28;20070;-63
2024/03/26 01:21:56;;;;;;;1999.90;999.90;;;;;;;3.63;100.00;99683.53;10525167;28;20056;-63
2024/03/26 01:26:57;;;;;;;1999.90;999.90;;;;;;;3.30;100.00;99677.28;10524176;28;20393;-63
2024/03/26 01:31:59;;;;;;;1999.90;999.90;;;;;;;3.43;100.00;99676.69;10524155;28;20048;-63
2024/03/26 01:37:00;;;;;;;1999.90;999.90;;;;;;;3.53;100.00;99665.00;10523545;28;20524;-63
2024/03/26 01:42:01;;;;;;;1999.90;999.90;;;;;;;3.32;100.00;99669.44;10524316;28;20055;-63
2024/03/26 01:47:03;;;;;;;1999.90;999.90;;;;;;;3.29;100.00;99654.06;10524215;28;20052;-63
2024/03/26 01:52:05;;;;;;;1999.90;999.90;;;;;;;3.40;100.00;99643.22;10506598;28;20040;-63
2024/03/26 01:57:06;;;;;;;1999.90;999.90;;;;;;;3.40;100.00;99638.06;10522496;28;20059;-63
2024/03/26 02:02:08;;;;;;;1999.90;999.90;;;;;;;3.28;100.00;99632.53;10523020;28;20105;-63
2024/03/26 02:07:10;;;;;;;1999.90;999.90;;;;;;;3.21;100.00;99635.44;10505516;28;20055;-63
2024/03/26 02:12:11;;;;;;;1999.90;999.90;;;;;;;3.28;100.00;99622.19;10496930;28;20509;-63
2024/03/26 02:17:12;;;;;;;1999.90;999.90;;;;;;;3.20;100.00;99619.09;10497525;28;20052;-63
2024/03/26 02:22:14;;;;;;;1999.90;999.90;;;;;;;3.35;100.00;99610.63;10497119;28;20045;-63
2024/03/26 02:27:15;;;;;;;1999.90;999.90;;;;;;;3.37;100.00;99597.63;10497049;28;20048;-63
2024/03/26 02:32:16;;;;;;;1999.90;999.90;;;;;;;3.46;100.00;99588.59;10496397;28;20409;-63
2024/03/26 02:37:18;;;;;;;1999.90;999.90;;;;;;;3.40;100.00;99591.47;10496857;28;20048;-63
2024/03/26 02:42:19;;;;;;;1999.90;999.90;;;;;;;3.63;100.00;99575.69;10479892;28;20052;-63
2024/03/26 02:47:21;;;;;;;1999.90;999.90;;;;;;;3.65;100.00;99567.84;10496063;28;20527;-63
2024/03/26 02:52:22;;;;;;;1999.90;999.90;;;;;;;3.81;100.00;99566.16;10479468;28;20059;-63
2024/03/26 02:57:23;;;;;;;1999.90;999.90;;;;;;;3.77;100.00;99549.13;10496375;28;20074;-63
2024/03/26 03:02:25;;;;;;;1999.90;999.90;;;;;;;4.06;100.00;99541.66;10496363;28;20057;-63
2024/03/26 03:07:26;;;;;;;1999.90;999.90;;;;;;;3.87;100.00;99531.38;10496596;28;20080;-63
2024/03/26 03:12:28;;;;;;;1999.90;999.90;;;;;;;4.00;98.61;99518.66;10504223;28;20057;-63
2024/03/26 03:17:29;;;;;;;1999.90;999.90;;;;;;;3.91;98.68;99512.19;10504892;28;20056;-63
2024/03/26 03:22:30;;;;;;;1999.90;999.90;;;;;;;4.09;97.07;99505.25;10511010;22;20527;-63
2024/03/26 03:27:35;;;;;;;1999.90;999.90;;;;;;;3.86;98.90;99498.63;10487731;28;20048;-63
2024/03/26 03:32:36;;;;;;;1999.90;999.90;;;;;;;3.96;98.04;99478.28;10503997;28;20045;-63
2024/03/26 03:37:38;;;;;;;1999.90;999.90;;;;;;;3.73;99.16;99469.91;10504542;28;20052;-64
2024/03/26 03:42:39;;;;;;;1999.90;999.90;;;;;;;3.83;98.49;99459.94;10503355;28;20048;-63
2024/03/26 03:47:40;;;;;;;1999.90;999.90;;;;;;;3.83;98.00;99447.00;10503557;28;20052;-63
2024/03/26 03:52:42;;;;;;;1999.90;999.90;;;;;;;3.68;97.83;99446.88;10502826;28;20588;-63
2024/03/26 03:57:43;;;;;;;1999.90;999.90;;;;;;;3.62;98.81;99439.41;10503505;28;20053;-63
2024/03/26 04:02:45;;;;;;;1999.90;999.90;;;;;;;3.66;97.52;99440.91;10502379;28;20044;-63
2024/03/26 04:07:47;;;;;;;1999.90;999.90;;;;;;;3.61;98.38;99427.38;10502858;28;20063;-63
2024/03/26 04:12:48;;;;;;;1999.90;999.90;;;;;;;3.55;98.53;99425.13;10485295;28;20052;-63
2024/03/26 04:17:52;;;;;;;1999.90;999.90;;;;;;;3.61;96.75;99427.38;10502431;28;20083;-63
2024/03/26 04:22:54;;;;;;;1999.90;999.90;;;;;;;3.46;97.28;99413.47;10500734;28;20056;-63
2024/03/26 04:27:55;;;;;;;1999.90;999.90;;;;;;;3.63;96.45;99409.19;10485413;28;20056;-63
2024/03/26 04:32:57;;;;;;;1999.90;999.90;;;;;;;3.47;96.84;99399.59;10501750;28;20106;-63
2024/03/26 04:37:58;;;;;;;1999.90;999.90;;;;;;;3.29;98.45;99405.69;10500696;28;20516;-63
2024/03/26 04:42:59;;;;;;;1999.90;999.90;;;;;;;3.32;99.12;99400.38;10485297;28;20056;-63
2024/03/26 04:48:01;;;;;;;1999.90;999.90;;;;;;;3.17;98.61;99405.38;10501211;28;20067;-63
2024/03/26 04:53:02;;;;;;;1999.90;999.90;;;;;;;3.13;99.05;99390.13;10484065;28;20051;-63
2024/03/26 04:58:04;;;;;;;1999.90;999.90;;;;;;;3.11;99.95;99385.00;10500652;28;20412;-63
2024/03/26 05:03:06;;;;;;;1999.90;999.90;;;;;;;3.12;99.55;99386.66;10467272;28;20070;-63
2024/03/26 05:08:07;;;;;;;1999.90;999.90;;;;;;;2.80;100.00;99377.91;10483792;28;20048;-63
2024/03/26 05:13:09;;;;;;;1999.90;999.90;;;;;;;3.00;100.00;99370.94;10483245;28;20052;-63
2024/03/26 05:18:10;;;;;;;1999.90;999.90;;;;;;;2.92;100.00;99369.53;10482644;28;20098;-63
2024/03/26 05:23:12;;;;;;;1999.90;999.90;;;;;;;2.95;100.00;99366.81;10499662;28;20060;-63
2024/03/26 05:28:14;;;;;;;1999.90;999.90;;;;;;;2.83;100.00;99367.41;10482990;28;20060;-63
2024/03/26 05:33:15;;;;;;;1999.90;999.90;;;;;;;3.02;100.00;99367.34;10482690;28;20256;-63
2024/03/26 05:38:17;;;;;;;1999.90;999.90;;;;;;;2.91;100.00;99362.72;10481881;28;20408;-63
2024/03/26 05:43:18;;;;;;;1999.90;999.90;;;;;;;2.93;100.00;99373.00;10498985;28;20056;-63
2024/03/26 05:48:20;;;;;;;1999.90;999.90;;;;;;;2.82;100.00;99363.16;10498852;28;20052;-63
2024/03/26 05:53:22;;;;;;;1999.90;999.90;;;;;;;3.03;100.00;99361.28;10481153;28;20048;-63
2024/03/26 05:58:23;;;;;;;1999.90;999.90;;;;;;;2.96;100.00;99352.16;10481433;28;20049;-63
2024/03/26 06:03:25;;;;;;;1999.90;999.90;;;;;;;3.32;99.96;99356.41;10497492;28;20064;-63
2024/03/26 06:08:26;;;;;;;1999.90;999.90;;;;;;;3.14;99.01;99360.72;10480610;28;20516;-63
2024/03/26 06:13:28;;;;;;;1999.90;999.90;;;;;;;3.28;99.64;99349.72;10496981;28;20370;-63
2024/03/26 06:18:29;;;;;;;1999.90;999.90;;;;;;;3.30;100.00;99340.97;10497573;28;20052;-65
2024/03/26 06:23:31;;;;;;;1999.90;999.90;;;;;;;3.45;99.72;99336.75;10496986;28;20063;-63
2024/03/26 06:28:32;;;;;;;1999.90;999.90;;;;;;;3.56;97.54;99345.72;10479988;28;20417;-63
2024/03/26 06:33:34;;;;;;;1999.90;999.90;;;;;;;3.47;98.39;99336.69;10496748;28;20049;-65
2024/03/26 06:38:35;;;;;;;1999.90;999.90;;;;;;;3.64;97.36;99334.03;10496912;28;20477;-63
2024/03/26 06:43:36;;;;;;;1999.90;999.90;;;;;;;3.68;97.35;99332.13;10496963;28;20052;-63
2024/03/26 06:48:38;;;;;;;1999.90;999.90;;;;;;;3.61;96.71;99333.38;10496672;28;20146;-63
2024/03/26 06:53:39;;;;;;;1999.90;999.90;;;;;;;3.88;96.45;99346.63;10496090;28;20048;-63
2024/03/26 06:58:45;;;;;;;1999.90;999.90;;;;;;;3.95;94.98;99331.59;10496172;28;20520;-63
2024/03/26 07:03:46;;;;;;;1999.90;999.90;;;;;;;4.23;94.10;99323.16;10478847;28;20044;-64
2024/03/26 07:08:48;;;;;;;1999.90;999.90;;;;;;;4.14;93.41;99323.69;10480005;28;20048;-64
2024/03/26 07:13:49;;;;;;;1999.90;999.90;;;;;;;4.50;93.39;99322.56;10495590;28;20113;-64
2024/03/26 07:18:51;;;;;;;1999.90;999.90;;;;;;;4.46;93.13;99316.72;10495572;28;20485;-63
2024/03/26 07:23:52;;;;;;;1999.90;999.90;;;;;;;4.67;91.90;99319.84;10479510;28;20048;-63
2024/03/26 07:28:54;;;;;;;1999.90;999.90;;;;;;;4.95;92.55;99319.13;10479837;28;20063;-63
2024/03/26 07:33:55;;;;;;;1999.90;999.90;;;;;;;5.43;92.28;99305.97;10495463;28;20049;-64
2024/03/26 07:38:56;;;;;;;1999.90;999.90;;;;;;;5.57;88.22;99299.94;10478960;28;20052;-64
2024/03/26 07:43:58;;;;;;;1999.90;999.90;;;;;;;6.21;90.24;99289.13;10495664;28;20547;-64
2024/03/26 07:48:59;;;;;;;1999.90;999.90;;;;;;;6.22;88.62;99282.97;10478327;28;20509;-64
2024/03/26 07:54:01;;;;;;;1999.90;999.90;;;;;;;6.21;88.77;99283.91;10496484;28;20048;-64
2024/03/26 07:59:02;;;;;;;1999.90;999.90;;;;;;;6.03;89.96;99288.50;10503096;28;20053;-64
2024/03/26 08:04:04;;;;;;;1999.90;999.90;;;;;;;6.46;90.56;99275.38;10486019;28;20052;-64
2024/03/26 08:09:07;;;;;;;1999.90;999.90;;;;;;;6.53;91.35;99279.25;10486148;28;20057;-64
2024/03/26 08:14:08;;;;;;;1999.90;999.90;;;;;;;6.99;92.71;99273.63;10485868;28;20045;-64
2024/03/26 08:19:10;;;;;;;1999.90;999.90;;;;;;;7.53;90.05;99267.38;10485891;28;20048;-64
2024/03/26 08:24:11;;;;;;;1999.90;999.90;;;;;;;7.69;88.85;99245.47;10485699;28;20094;-64
2024/03/26 08:29:13;;;;;;;1999.90;999.90;;;;;;;7.77;86.84;99245.75;10484822;28;20486;-64
2024/03/26 08:34:15;;;;;;;1999.90;999.90;;;;;;;7.52;83.38;99233.63;10501404;28;20075;-64
2024/03/26 08:39:17;;;;;;;1999.90;999.90;;;;;;;8.07;82.60;99239.28;10484652;28;20057;-64
2024/03/26 08:44:18;;;;;;;1999.90;999.90;;;;;;;7.91;79.73;99216.13;10483807;28;20558;-64
2024/03/26 08:49:20;;;;;;;1999.90;999.90;;;;;;;7.75;78.67;99217.22;10484410;28;20056;-64
2024/03/26 08:54:21;;;;;;;1999.90;999.90;;;;;;;7.85;78.42;99200.91;10484549;28;20056;-63
2024/03/26 08:59:23;;;;;;;1999.90;999.90;;;;;;;7.88;77.62;99206.72;10500911;28;20056;-63
2024/03/26 09:04:24;;;;;;;1999.90;999.90;;;;;;;8.12;78.53;99198.94;10483370;28;20048;-63
2024/03/26 09:09:26;;;;;;;1999.90;999.90;;;;;;;8.15;77.16;99200.47;10483380;28;20053;-64
2024/03/26 09:14:27;;;;;;;1999.90;999.90;;;;;;;8.50;75.76;99200.53;10499897;28;20045;-64
2024/03/26 09:19:28;;;;;;;1999.90;999.90;;;;;;;8.45;75.30;99201.81;10483512;28;20048;-64
2024/03/26 09:24:30;;;;;;;1999.90;999.90;;;;;;;8.62;74.29;99188.34;10483188;28;20057;-64
2024/03/26 09:29:31;;;;;;;1999.90;999.90;;;;;;;9.15;75.12;99184.41;10500087;28;20052;-64
2024/03/26 09:34:33;;;;;;;1999.90;999.90;;;;;;;9.32;74.75;99175.25;10498966;28;20060;-64
2024/03/26 09:39:34;;;;;;;1999.90;999.90;;;;;;;9.09;73.70;99172.63;10482396;28;20056;-64
2024/03/26 09:44:37;;;;;;;1999.90;999.90;;;;;;;9.06;71.51;99159.81;10482845;28;20110;-64
2024/03/26 09:49:40;;;;;;;1999.90;999.90;;;;;;;9.22;71.02;99156.84;10482142;28;20146;-64
2024/03/26 09:54:41;;;;;;;1999.90;999.90;;;;;;;8.99;71.33;99149.00;10482224;28;20094;-63
2024/03/26 09:59:42;;;;;;;1999.90;999.90;;;;;;;9.51;70.88;99141.50;10481675;28;20049;-63
2024/03/26 10:04:44;;;;;;;1999.90;999.90;;;;;;;9.36;70.14;99140.91;10497442;28;20482;-64
2024/03/26 10:09:45;;;;;;;1999.90;999.90;;;;;;;9.61;68.39;99131.97;10481557;28;20064;-64
2024/03/26 10:14:46;;;;;;;1999.90;999.90;;;;;;;9.33;68.40;99127.28;10497960;28;20052;-63
2024/03/26 10:19:48;;;;;;;1999.90;999.90;;;;;;;9.62;68.92;99122.38;10488576;28;20052;-63
2024/03/26 10:24:49;;;;;;;1999.90;999.90;;;;;;;9.91;67.99;99119.19;10439048;28;20052;-63
2024/03/26 10:29:55;;;;;;;1999.90;999.90;;;;;;;9.79;67.68;99121.81;10468465;28;20051;-63
2024/03/26 10:35:03;;;;;;;1999.90;999.90;;;;;;;10.05;67.29;99121.47;10475023;28;20041;-63
2024/03/26 10:40:12;;;;;;;1999.90;999.90;;;;;;;10.09;66.82;99109.84;10438303;28;20079;-63
2024/03/26 10:45:16;;;;;;;1999.90;999.90;;;;;;;10.19;66.74;99109.91;10406519;28;20048;-63
2024/03/26 10:50:18;;;;;;;1999.90;999.90;;;;;;;10.81;66.21;99102.16;10439045;28;20045;-63
2024/03/26 10:55:21;;;;;;;1999.90;999.90;;;;;;;10.93;65.36;99096.72;10438282;28;20052;-63
2024/03/26 11:00:22;;;;;;;1999.90;999.90;;;;;;;11.01;64.75;99087.34;10438326;28;20060;-63
2024/03/26 11:05:26;;;;;;;1999.90;999.90;;;;;;;10.78;64.55;99085.75;10421292;28;20053;-63
2024/03/26 11:10:27;;;;;;;1999.90;999.90;;;;;;;11.13;64.62;99075.84;10421605;28;20060;-63
2024/03/26 11:15:31;;;;;;;1999.90;999.90;;;;;;;11.18;66.33;99078.88;10437534;28;20049;-63
2024/03/26 11:20:33;;;;;;;1999.90;999.90;;;;;;;11.32;64.77;99069.81;10421579;28;20053;-63
2024/03/26 11:25:35;;;;;;;1999.90;999.90;;;;;;;11.24;64.55;99056.53;10437795;28;20072;-63
2024/03/26 11:30:36;;;;;;;1999.90;999.90;;;;;;;11.25;64.42;99050.34;10425575;28;20057;-63
2024/03/26 11:35:37;;;;;;;1999.90;999.90;;;;;;;11.07;66.00;99050.97;10428735;28;20049;-63
2024/03/26 11:40:39;;;;;;;1999.90;999.90;;;;;;;12.85;66.85;99042.84;10445613;28;20052;-63
2024/03/26 11:45:41;;;;;;;1999.90;999.90;;;;;;;12.23;63.94;99031.03;10445700;28;19943;-64
2024/03/26 11:50:44;;;;;;;1999.90;999.90;;;;;;;12.10;62.56;99030.50;10445116;28;20053;-64
2024/03/26 11:55:45;;;;;;;1999.90;999.90;;;;;;;11.77;64.13;99034.38;10444884;28;20448;-63
2024/03/26 12:00:49;;;;;;;1999.90;999.90;;;;;;;12.14;64.39;99025.78;10444466;28;20057;-63
2024/03/26 12:05:50;;;;;;;1999.90;999.90;;;;;;;11.79;62.38;99017.53;10444436;28;20486;-63
2024/03/26 12:10:52;;;;;;;1999.90;999.90;;;;;;;12.48;65.08;99022.69;10444211;28;20486;-63
2024/03/26 12:15:53;;;;;;;1999.90;999.90;;;;;;;12.58;63.56;99008.53;10444049;28;20052;-64
2024/03/26 12:20:56;;;;;;;1999.90;999.90;;;;;;;12.73;62.59;98997.56;10461137;28;20060;-64
2024/03/26 12:25:58;;;;;;;1999.90;999.90;;;;;;;12.58;63.01;98995.41;10443827;28;20391;-64
2024/03/26 12:30:59;;;;;;;1999.90;999.90;;;;;;;12.86;62.19;98998.06;10443452;28;20048;-64
2024/03/26 12:36:04;;;;;;;1999.90;999.90;;;;;;;12.47;62.60;98987.72;10427161;28;20053;-64
2024/03/26 12:41:07;;;;;;;1999.90;999.90;;;;;;;12.72;63.57;98983.59;10425865;28;20115;-64
2024/03/26 12:46:08;;;;;;;1999.90;999.90;;;;;;;12.37;63.31;98977.28;10443237;28;20061;-64
2024/03/26 12:51:10;;;;;;;1999.90;999.90;;;;;;;12.74;63.69;98984.31;10442851;28;20053;-64
2024/03/26 12:56:16;;;;;;;1999.90;999.90;;;;;;;12.52;63.69;98979.41;10442632;28;20045;-64
2024/03/26 13:01:17;;;;;;;1999.90;999.90;;;;;;;12.89;63.73;98975.91;10425712;28;20056;-64
2024/03/26 13:06:19;;;;;;;1999.90;999.90;;;;;;;13.27;62.56;98966.94;10425928;28;20486;-64
2024/03/26 13:11:21;;;;;;;1999.90;999.90;;;;;;;14.36;61.79;98957.06;10425736;28;20049;-64
2024/03/26 13:16:22;;;;;;;1999.90;999.90;;;;;;;13.27;62.14;98955.63;10425719;28;20060;-64
2024/03/26 13:21:23;;;;;;;1999.90;999.90;;;;;;;14.59;61.47;98936.28;10408611;28;20053;-64
2024/03/26 13:26:25;;;;;;;1999.90;999.90;;;;;;;14.81;61.39;98934.84;10424661;28;20422;-64
2024/03/26 13:31:26;;;;;;;1999.90;999.90;;;;;;;14.30;62.73;98934.81;10441659;28;20041;-64
2024/03/26 13:36:27;;;;;;;1999.90;999.90;;;;;;;14.36;62.00;98938.63;10441457;28;20057;-64
2024/03/26 13:41:29;;;;;;;1999.90;999.90;;;;;;;13.70;61.49;98930.34;10440551;28;20398;-64
2024/03/26 13:46:31;;;;;;;1999.90;999.90;;;;;;;13.98;61.86;98919.69;10440457;28;20056;-64
2024/03/26 13:51:32;;;;;;;1999.90;999.90;;;;;;;13.41;62.28;98923.56;10440631;28;20095;-64
2024/03/26 13:56:33;;;;;;;1999.90;999.90;;;;;;;13.29;61.37;98912.41;10440636;28;20053;-64
2024/03/26 14:01:35;;;;;;;1999.90;999.90;;;;;;;13.04;62.97;98900.06;10439800;28;20060;-64
2024/03/26 14:06:36;;;;;;;1999.90;999.90;;;;;;;13.69;63.46;98903.22;10440031;28;20060;-64
2024/03/26 14:11:38;;;;;;;1999.90;999.90;;;;;;;13.52;64.07;98904.09;10440061;28;20052;-64
2024/03/26 14:16:39;;;;;;;1999.90;999.90;;;;;;;12.77;62.63;98891.25;10439753;28;20060;-64
2024/03/26 14:21:41;;;;;;;1999.90;999.90;;;;;;;13.05;63.62;98883.31;10439495;28;20053;-64
2024/03/26 14:26:42;;;;;;;1999.90;999.90;;;;;;;13.09;64.02;98879.41;10438675;28;20049;-64
2024/03/26 14:31:44;;;;;;;1999.90;999.90;;;;;;;13.19;64.08;98870.44;10439413;28;20045;-64
2024/03/26 14:36:45;;;;;;;1999.90;999.90;;;;;;;13.22;65.29;98860.63;10439150;28;20053;-64
2024/03/26 14:41:47;;;;;;;1999.90;999.90;;;;;;;13.02;64.82;98852.91;10438682;28;20064;-64
2024/03/26 14:46:48;;;;;;;1999.90;999.90;;;;;;;12.88;65.39;98842.94;10455649;28;20061;-64
2024/03/26 14:51:49;;;;;;;1999.90;999.90;;;;;;;13.10;66.61;98852.16;10437584;28;20053;-64
2024/03/26 14:56:51;;;;;;;1999.90;999.90;;;;;;;13.07;67.33;98850.66;10479839;28;20106;-64
2024/03/26 15:01:52;;;;;;;1999.90;999.90;;;;;;;13.42;66.32;98840.28;10463096;28;20056;-64
2024/03/26 15:06:54;;;;;;;1999.90;999.90;;;;;;;13.42;67.73;98827.97;10478153;28;20052;-64
2024/03/26 15:11:56;;;;;;;1999.90;999.90;;;;;;;13.98;67.77;98810.00;10479057;28;20102;-64
2024/03/26 15:16:58;;;;;;;1999.90;999.90;;;;;;;14.26;66.70;98800.06;10479145;28;20052;-64
2024/03/26 15:21:59;;;;;;;1999.90;999.90;;;;;;;14.56;65.65;98796.97;10478793;28;20385;-64
2024/03/26 15:32:10;;;;;;;1999.90;999.90;;;;;;;13.75;67.39;98784.28;10479051;28;20045;-64
2024/03/26 15:37:12;;;;;;;1999.90;999.90;;;;;;;13.92;67.02;98776.44;10489666;22;20093;-64
2024/03/26 15:42:13;;;;;;;1999.90;999.90;;;;;;;13.27;67.26;98785.63;10520618;28;20048;-64
2024/03/26 15:47:15;;;;;;;1999.90;999.90;;;;;;;13.35;68.80;98777.00;10520535;28;20056;-63
2024/03/26 15:52:16;;;;;;;1999.90;999.90;;;;;;;13.53;68.12;98763.75;10503362;28;20048;-64
2024/03/26 15:57:17;;;;;;;1999.90;999.90;;;;;;;14.01;67.53;98762.31;10520363;28;20052;-63
2024/03/26 16:02:19;;;;;;;1999.90;999.90;;;;;;;13.65;66.69;98746.75;10519724;28;20051;-63
2024/03/26 16:07:20;;;;;;;1999.90;999.90;;;;;;;14.07;66.85;98735.38;10520106;28;20121;-64
2024/03/26 16:12:22;;;;;;;1999.90;999.90;;;;;;;14.04;67.31;98729.63;10519887;28;20102;-64
2024/03/26 16:17:23;;;;;;;1999.90;999.90;;;;;;;13.98;66.90;98722.38;10522849;28;20882;-64
2024/03/26 16:22:25;;;;;;;1999.90;999.90;;;;;;;13.96;68.07;98719.88;10526809;28;20120;-64
2024/03/26 16:27:26;;;;;;;1999.90;999.90;;;;;;;13.55;69.52;98710.06;10526623;28;20044;-63
2024/03/26 16:32:27;;;;;;;1999.90;999.90;;;;;;;13.73;67.58;98711.75;10526210;28;20047;-63
2024/03/26 16:37:31;;;;;;;1999.90;999.90;;;;;;;13.59;72.12;98707.94;10510114;28;20062;-64
2024/03/26 16:42:33;;;;;;;1999.90;999.90;;;;;;;13.40;72.38;98703.75;10525936;28;20044;-64
2024/03/26 16:47:35;;;;;;;1999.90;999.90;;;;;;;13.15;72.96;98700.16;10525951;28;20056;-64
2024/03/26 16:52:38;;;;;;;1999.90;999.90;;;;;;;12.83;73.52;98696.34;10525458;28;20377;-63
2024/03/26 16:57:39;;;;;;;1999.90;999.90;;;;;;;12.72;74.25;98691.34;10525540;28;20507;-64
2024/03/26 17:02:41;;;;;;;1999.90;999.90;;;;;;;12.62;75.50;98691.41;10525722;28;20052;-64
2024/03/26 17:07:42;;;;;;;1999.90;999.90;;;;;;;12.38;75.37;98697.31;10525572;28;20052;-64
2024/03/26 17:12:43;;;;;;;1999.90;999.90;;;;;;;12.39;75.33;98696.31;10525106;28;20052;-63
2024/03/26 17:17:45;;;;;;;1999.90;999.90;;;;;;;12.01;78.25;98701.72;10524561;28;20075;-63
2024/03/26 17:22:46;;;;;;;1999.90;999.90;;;;;;;11.88;78.10;98702.06;10524675;28;20520;-63
2024/03/26 17:27:47;;;;;;;1999.90;999.90;;;;;;;11.81;77.55;98700.97;10524709;28;20052;-64
2024/03/26 17:32:49;;;;;;;1999.90;999.90;;;;;;;11.46;79.98;98686.00;10524028;28;20059;-63
2024/03/26 17:37:51;;;;;;;1999.90;999.90;;;;;;;10.97;83.18;98691.41;10524353;28;20052;-63
2024/03/26 17:42:52;;;;;;;1999.90;999.90;;;;;;;10.78;85.19;98679.19;10524432;28;20044;-63
2024/03/26 17:47:54;;;;;;;1999.90;999.90;;;;;;;10.51;86.81;98686.00;10524029;28;20052;-64
2024/03/26 17:52:55;;;;;;;1999.90;999.90;;;;;;;10.29;88.41;98681.00;10523544;28;20040;-63
2024/03/26 17:57:56;;;;;;;1999.90;999.90;;;;;;;10.03;89.54;98684.97;10524094;28;20044;-63
2024/03/26 18:02:58;;;;;;;1999.90;999.90;;;;;;;9.95;91.85;98678.78;10522926;28;20404;-64
2024/03/26 18:08:00;;;;;;;1999.90;999.90;;;;;;;10.12;90.31;98683.34;10522484;28;20489;-64
2024/03/26 18:13:01;;;;;;;1999.90;999.90;;;;;;;10.00;90.83;98681.81;10522141;28;20485;-64
2024/03/26 18:18:03;;;;;;;1999.90;999.90;;;;;;;10.16;89.54;98674.25;10522317;28;20056;-63
2024/03/26 18:23:04;;;;;;;1999.90;999.90;;;;;;;10.16;89.76;98669.03;10523114;28;20055;-63
2024/03/26 18:28:06;;;;;;;1999.90;999.90;;;;;;;10.20;88.31;98686.13;10522725;28;20060;-63
2024/03/26 18:33:07;;;;;;;1999.90;999.90;;;;;;;10.13;89.63;98681.56;10521839;28;20044;-63
2024/03/26 18:38:09;;;;;;;1999.90;999.90;;;;;;;10.12;89.46;98683.34;10521366;28;20052;-64
2024/03/26 18:43:10;;;;;;;1999.90;999.90;;;;;;;10.23;89.49;98680.59;10522127;28;20101;-63
2024/03/26 18:48:11;;;;;;;1999.90;999.90;;;;;;;10.07;89.64;98671.63;10520969;28;20118;-64
2024/03/26 18:53:14;;;;;;;1999.90;999.90;;;;;;;10.11;90.59;98668.63;10521230;28;20044;-63
2024/03/26 18:58:15;;;;;;;1999.90;999.90;;;;;;;10.24;89.13;98663.13;10521656;28;20048;-64
2024/03/26 19:03:18;;;;;;;1999.90;999.90;;;;;;;10.17;89.80;98654.16;10520735;28;20052;-64
2024/03/26 19:08:19;;;;;;;1999.90;999.90;;;;;;;10.09;91.17;98647.03;10504786;28;20052;-64
2024/03/26 19:13:21;;;;;;;1999.90;999.90;;;;;;;10.29;90.60;98655.69;10520603;28;20055;-63
2024/03/26 19:18:22;;;;;;;1999.90;999.90;;;;;;;10.18;91.69;98658.44;10521347;28;20052;-63
2024/03/26 19:23:29;;;;;;;1999.90;999.90;;;;;;;10.24;90.69;98655.28;10521348;28;20048;-63
2024/03/26 19:28:31;;;;;;;1999.90;999.90;;;;;;;10.20;91.33;98656.50;10505161;28;20052;-63
2024/03/26 19:33:32;;;;;;;1999.90;999.90;;;;;;;10.35;89.36;98655.16;10503927;28;20059;-63
2024/03/26 19:38:35;;;;;;;1999.90;999.90;;;;;;;10.44;90.90;98665.75;10520476;28;20060;-63
2024/03/26 19:43:36;;;;;;;1999.90;999.90;;;;;;;10.26;91.56;98655.97;10520819;28;20130;-64
2024/03/26 19:48:38;;;;;;;1999.90;999.90;;;;;;;10.26;91.33;98658.56;10503939;28;20068;-63
2024/03/26 19:53:41;;;;;;;1999.90;999.90;;;;;;;10.26;90.59;98642.88;10510947;28;20048;-63
2024/03/26 19:58:42;;;;;;;1999.90;999.90;;;;;;;10.32;90.88;98638.91;10511907;28;20060;-64
2024/03/26 20:03:45;;;;;;;1999.90;999.90;;;;;;;10.38;90.54;98630.50;10527971;28;20055;-64
2024/03/26 20:08:46;;;;;;;1999.90;999.90;;;;;;;10.41;91.90;98632.84;10510943;28;20550;-64
2024/03/26 20:13:48;;;;;;;1999.90;999.90;;;;;;;10.31;93.24;98645.91;10510651;28;20507;-64
2024/03/26 20:18:49;;;;;;;1999.90;999.90;;;;;;;10.35;91.14;98636.00;10510249;28;20488;-64
2024/03/26 20:23:51;;;;;;;1999.90;999.90;;;;;;;10.22;93.07;98639.72;10527091;28;20488;-64
2024/03/26 20:28:52;;;;;;;1999.90;999.90;;;;;;;10.36;93.65;98633.25;10526772;28;20048;-64
2024/03/26 20:33:53;;;;;;;1999.90;999.90;;;;;;;10.36;91.63;98633.25;10509999;28;20101;-64
2024/03/26 20:38:55;;;;;;;1999.90;999.90;;;;;;;10.11;94.85;98631.19;10493242;28;20527;-64
2024/03/26 20:43:56;;;;;;;1999.90;999.90;;;;;;;10.21;96.83;98629.41;10509609;28;20451;-64
2024/03/26 20:48:58;;;;;;;1999.90;999.90;;;;;;;10.16;93.57;98629.81;10525889;28;20051;-64
2024/03/26 20:53:59;;;;;;;1999.90;999.90;;;;;;;10.33;95.07;98633.53;10525845;28;20160;-64
2024/03/26 20:59:00;;;;;;;1999.90;999.90;;;;;;;10.20;96.37;98638.19;10525096;28;20493;-64
2024/03/26 21:04:02;;;;;;;1999.90;999.90;;;;;;;9.93;97.05;98631.88;10524205;28;20052;-65
2024/03/26 21:09:04;;;;;;;1999.90;999.90;;;;;;;10.06;96.51;98628.16;10525610;28;20056;-64
2024/03/26 21:14:05;;;;;;;1999.90;999.90;;;;;;;9.99;96.66;98627.91;10525169;28;20082;-64
2024/03/26 21:19:13;;;;;;;1999.90;999.90;;;;;;;10.03;94.85;98624.03;10525117;28;20052;-64
2024/03/26 21:24:14;;;;;;;1999.90;999.90;;;;;;;10.08;93.77;98623.63;10524997;28;20056;-64
2024/03/26 21:29:15;;;;;;;1999.90;999.90;;;;;;;10.63;85.28;98617.81;10525014;28;20105;-64
2024/03/26 21:34:17;;;;;;;1999.90;999.90;;;;;;;10.59;84.46;98606.78;10524152;28;20047;-64
2024/03/26 21:39:19;;;;;;;1999.90;999.90;;;;;;;10.55;84.86;98605.41;10523732;28;20516;-64
2024/03/26 21:44:20;;;;;;;1999.90;999.90;;;;;;;10.89;79.79;98607.50;10524111;28;20060;-64
2024/03/26 21:49:21;;;;;;;1999.90;999.90;;;;;;;10.75;79.57;98591.31;10523405;28;20056;-64
2024/03/26 21:54:23;;;;;;;1999.90;999.90;;;;;;;10.66;82.41;98586.09;10523720;28;20052;-64
2024/03/26 21:59:24;;;;;;;1999.90;999.90;;;;;;;10.58;82.06;98585.03;10524180;28;20090;-64
2024/03/26 22:04:26;;;;;;;1999.90;999.90;;;;;;;10.35;82.61;98578.47;10523867;28;20048;-64
2024/03/26 22:09:27;;;;;;;1999.90;999.90;;;;;;;10.22;84.40;98573.50;10522716;28;20048;-64
2024/03/26 22:14:28;;;;;;;1999.90;999.90;;;;;;;10.12;84.39;98568.31;10522450;28;20408;-64